Time;durP1;ratioP1;P1;durP2;ratioP2;P2;SDS_P1;SDS_P2;PMS_P1;PMS_P2;Temp;Humidity;BMP_temperature;BMP_pressure;BME280_temperature;BME280_humidity;BME280_pressure;Samples;Min_cycle;Max_cycle;Signal;HPM_P1;HPM_P2
2022/09/02 00:05:19;;;;;;;1.02;0.73;;;19.10;56.80;21.30;93846.00;;;;10445872;28;45796;-60
2022/09/02 00:10:42;;;;;;;1.00;0.85;;;19.10;56.60;21.30;93832.00;;;;10429739;28;45910;-60
2022/09/02 00:16:06;;;;;;;0.77;0.70;;;19.10;56.50;21.30;93848.00;;;;10442458;28;45450;-59
2022/09/02 00:21:27;;;;;;;0.85;0.77;;;19.10;56.50;21.30;93845.00;;;;10429397;28;45726;-60
2022/09/02 00:26:48;;;;;;;1.00;0.80;;;19.10;56.40;21.20;93841.00;;;;10429036;28;45750;-59
2022/09/02 00:32:10;;;;;;;1.50;1.02;;;19.10;56.40;21.20;93836.00;;;;10429061;28;45232;-59
2022/09/02 00:37:31;;;;;;;0.70;0.70;;;19.10;56.40;21.20;93828.00;;;;10457571;28;45169;-59
2022/09/02 00:42:52;;;;;;;0.90;0.70;;;19.10;57.10;21.20;93823.00;;;;10470126;28;45157;-60
2022/09/02 00:48:14;;;;;;;0.98;0.70;;;19.10;56.30;21.20;93811.00;;;;10450623;28;45765;-59
2022/09/02 00:53:38;;;;;;;0.80;0.68;;;19.10;56.30;21.20;93808.00;;;;10428124;28;45165;-58
2022/09/02 00:59:00;;;;;;;1.50;0.80;;;19.10;56.30;21.20;93814.00;;;;10453260;28;45209;-60
2022/09/02 01:04:22;;;;;;;1.00;0.70;;;19.10;56.30;21.20;93811.00;;;;10452386;28;45301;-58
2022/09/02 01:09:42;;;;;;;0.80;0.80;;;19.20;56.20;21.20;93806.00;;;;10431723;28;45522;-59
2022/09/02 01:15:06;;;;;;;0.57;0.57;;;19.10;56.30;21.20;93807.00;;;;10427739;28;45193;-58
2022/09/02 01:20:28;;;;;;;0.88;0.70;;;19.00;56.20;21.20;93809.00;;;;10458991;28;45161;-60
2022/09/02 01:25:50;;;;;;;1.00;0.55;;;19.00;56.20;21.20;93810.00;;;;10468105;28;45182;-60
2022/09/02 01:31:10;;;;;;;1.02;0.70;;;19.10;56.10;21.20;93800.00;;;;10469032;28;45759;-60
2022/09/02 01:36:31;;;;;;;1.00;0.68;;;19.00;56.10;21.20;93785.00;;;;10468964;28;46203;-59
2022/09/02 01:41:53;;;;;;;1.00;0.70;;;19.00;56.10;21.20;93801.00;;;;10460088;28;45208;-59
2022/09/02 01:47:17;;;;;;;0.77;0.73;;;19.00;56.20;21.10;93793.00;;;;10458710;28;45849;-59
2022/09/02 01:52:38;;;;;;;0.73;0.60;;;19.00;56.20;21.10;93796.00;;;;10427090;28;45477;-60
2022/09/02 01:58:00;;;;;;;1.30;0.90;;;19.00;56.20;21.10;93790.00;;;;10427109;28;45166;-59
2022/09/02 02:03:21;;;;;;;0.57;0.50;;;19.00;56.20;21.10;93794.00;;;;10426079;28;45218;-60
2022/09/02 02:08:42;;;;;;;1.15;0.70;;;19.00;56.30;21.10;93794.00;;;;10442286;28;45547;-61
2022/09/02 02:14:05;;;;;;;1.35;0.73;;;19.00;56.10;21.10;93792.00;;;;10456508;28;45773;-59
2022/09/02 02:19:27;;;;;;;0.60;0.57;;;19.00;56.20;21.10;93790.00;;;;10467868;28;45215;-60
2022/09/02 02:24:47;;;;;;;1.05;0.85;;;19.00;56.10;21.10;93782.00;;;;10473242;28;45437;-61
2022/09/02 02:30:13;;;;;;;0.60;0.60;;;19.00;56.10;21.10;93779.00;;;;10474767;28;45218;-60
2022/09/02 02:35:34;;;;;;;0.60;0.60;;;19.00;56.10;21.10;93804.00;;;;10474392;28;45237;-59
2022/09/02 02:40:56;;;;;;;0.88;0.65;;;18.90;56.00;21.10;93788.00;;;;10468007;28;45208;-59
2022/09/02 02:46:18;;;;;;;1.13;0.60;;;19.00;56.10;21.10;93788.00;;;;10472114;28;45202;-60
2022/09/02 02:51:39;;;;;;;1.05;0.60;;;19.00;56.10;21.10;93799.00;;;;10432160;28;45291;-60
2022/09/02 02:56:59;;;;;;;0.77;0.65;;;18.90;56.00;21.10;93788.00;;;;10432042;28;45755;-59
2022/09/02 03:02:21;;;;;;;0.85;0.60;;;18.90;55.90;21.00;93808.00;;;;10432150;28;45738;-60
2022/09/02 03:07:42;;;;;;;1.20;0.60;;;18.90;55.90;21.10;93779.00;;;;10448225;28;45115;-61
2022/09/02 03:13:04;;;;;;;1.05;0.68;;;18.90;55.80;21.00;93782.00;;;;10431614;28;45261;-61
2022/09/02 03:18:26;;;;;;;0.65;0.57;;;18.90;55.80;21.10;93777.00;;;;10431978;28;45343;-62
2022/09/02 03:23:48;;;;;;;0.63;0.60;;;18.90;55.80;21.00;93776.00;;;;10460954;28;45114;-60
2022/09/02 03:29:08;;;;;;;0.85;0.60;;;18.90;55.70;21.00;93775.00;;;;10464924;28;45207;-61
2022/09/02 03:34:31;;;;;;;0.73;0.60;;;18.90;55.60;21.00;93785.00;;;;10428816;28;45186;-60
2022/09/02 03:39:51;;;;;;;0.70;0.70;;;18.90;55.70;21.00;93789.00;;;;10457477;28;45110;-60
2022/09/02 03:45:14;;;;;;;0.82;0.65;;;18.90;55.60;21.00;93789.00;;;;10463660;28;45864;-59
2022/09/02 03:50:40;;;;;;;1.33;0.60;;;18.90;55.60;21.00;93790.00;;;;10434406;28;45230;-59
2022/09/02 03:56:06;;;;;;;1.13;0.65;;;18.90;55.50;21.00;93777.00;;;;10458739;28;45205;-59
2022/09/02 04:01:27;;;;;;;1.00;0.70;;;18.90;55.50;21.00;93770.00;;;;10471468;28;45248;-60
2022/09/02 04:06:49;;;;;;;0.88;0.73;;;18.90;55.40;21.00;93775.00;;;;10462723;28;45207;-60
2022/09/02 04:12:10;;;;;;;0.82;0.52;;;18.90;55.50;21.00;93771.00;;;;10436523;28;45194;-60
2022/09/02 04:17:30;;;;;;;0.90;0.70;;;18.90;55.30;21.00;93774.00;;;;10430011;28;45356;-60
2022/09/02 04:22:52;;;;;;;0.82;0.70;;;18.90;55.30;21.00;93753.00;;;;10429297;28;45162;-59
2022/09/02 04:28:13;;;;;;;0.63;0.50;;;18.90;55.20;20.90;93751.00;;;;10429094;28;45115;-59
2022/09/02 04:33:34;;;;;;;0.60;0.60;;;18.90;55.20;21.00;93761.00;;;;10428297;28;45273;-60
2022/09/02 04:38:58;;;;;;;1.08;0.70;;;18.90;55.20;21.00;93765.00;;;;10430009;28;45295;-59
2022/09/02 04:44:19;;;;;;;0.63;0.60;;;18.90;55.10;20.90;93761.00;;;;10458426;28;45273;-60
2022/09/02 04:49:40;;;;;;;0.55;0.50;;;18.80;54.80;20.90;93772.00;;;;10440253;28;45266;-59
2022/09/02 04:55:02;;;;;;;0.70;0.60;;;18.80;55.00;20.90;93768.00;;;;10427902;28;45140;-59
2022/09/02 05:00:23;;;;;;;1.30;0.60;;;18.90;55.10;20.90;93755.00;;;;10428593;28;45191;-60
2022/09/02 05:05:44;;;;;;;0.70;0.40;;;18.90;55.00;20.90;93776.00;;;;10456307;28;45190;-59
2022/09/02 05:11:07;;;;;;;2.08;0.63;;;18.90;54.90;20.90;93765.00;;;;10437831;28;45212;-60
2022/09/02 05:16:31;;;;;;;1.60;0.60;;;18.80;54.90;20.90;93761.00;;;;10428338;28;45179;-60
2022/09/02 05:21:54;;;;;;;0.75;0.60;;;18.90;54.90;20.90;93762.00;;;;10427976;28;45762;-60
2022/09/02 05:27:16;;;;;;;1.05;0.57;;;18.90;54.80;20.90;93777.00;;;;10440820;28;45190;-60
2022/09/02 05:32:37;;;;;;;1.00;0.70;;;18.90;54.70;20.90;93772.00;;;;10426655;28;45174;-60
2022/09/02 05:37:57;;;;;;;0.40;0.40;;;18.80;54.60;20.90;93782.00;;;;10427391;28;45221;-60
2022/09/02 05:43:19;;;;;;;0.82;0.68;;;18.80;54.60;20.90;93777.00;;;;10459129;28;45481;-60
2022/09/02 05:54:24;;;;;;;1.00;0.73;;;18.80;54.50;20.90;93780.00;;;;10426943;28;45179;-60
2022/09/02 05:59:47;;;;;;;0.98;0.50;;;18.80;54.50;20.90;93773.00;;;;10432984;28;45292;-59
2022/09/02 06:05:11;;;;;;;0.75;0.70;;;18.80;54.50;20.90;93770.00;;;;10434406;28;45228;-59
2022/09/02 06:10:32;;;;;;;0.45;0.45;;;18.80;54.60;20.90;93771.00;;;;10453569;28;45263;-60
2022/09/02 06:15:54;;;;;;;0.60;0.50;;;18.80;54.40;20.90;93779.00;;;;10434029;28;45154;-60
2022/09/02 06:21:19;;;;;;;0.90;0.50;;;18.80;54.50;20.90;93768.00;;;;10432588;28;45162;-60
2022/09/02 06:26:41;;;;;;;0.55;0.40;;;18.80;54.50;20.90;93763.00;;;;10433317;28;45208;-59
2022/09/02 06:32:03;;;;;;;0.90;0.75;;;18.80;54.60;20.90;93770.00;;;;10432360;28;45708;-59
2022/09/02 06:37:24;;;;;;;0.50;0.50;;;18.80;54.50;20.90;93772.00;;;;10433503;28;45461;-60
2022/09/02 06:42:46;;;;;;;1.23;0.60;;;18.80;54.50;20.90;93756.00;;;;10454938;28;45461;-59
2022/09/02 06:48:09;;;;;;;0.50;0.40;;;18.90;54.40;21.00;93771.00;;;;10455237;28;45432;-59
2022/09/02 06:53:29;;;;;;;1.00;0.60;;;18.90;53.80;20.90;93767.00;;;;10434718;28;45185;-59
2022/09/02 06:58:50;;;;;;;2.08;0.50;;;18.90;53.10;21.00;93755.00;;;;10434662;28;45250;-59
2022/09/02 07:09:56;;;;;;;1.45;0.73;;;18.90;51.70;20.90;93753.00;;;;10455977;28;45521;-60
2022/09/02 07:15:17;;;;;;;0.70;0.60;;;18.80;52.60;20.90;93745.00;;;;10433481;28;45269;-59
2022/09/02 07:20:39;;;;;;;1.10;0.70;;;18.80;51.20;20.90;93747.00;;;;10437448;28;45214;-60
2022/09/02 07:25:59;;;;;;;1.40;0.52;;;18.90;51.30;20.90;93747.00;;;;10447542;28;45245;-60
2022/09/02 07:31:22;;;;;;;0.90;0.47;;;18.80;51.80;20.90;93753.00;;;;10435618;28;45272;-59
2022/09/02 07:36:45;;;;;;;1.02;0.55;;;18.80;52.90;20.90;93752.00;;;;10446758;28;45164;-60
2022/09/02 07:42:06;;;;;;;1.65;0.73;;;18.80;53.20;20.90;93754.00;;;;10446532;28;45143;-59
2022/09/02 07:47:27;;;;;;;1.50;0.60;;;18.80;53.40;20.90;93763.00;;;;10448062;28;45281;-60
2022/09/02 07:52:49;;;;;;;1.35;0.60;;;18.80;53.50;20.90;93775.00;;;;10433296;28;45384;-60
2022/09/02 07:58:10;;;;;;;1.48;0.60;;;18.80;53.60;20.90;93769.00;;;;10432558;28;45310;-59
2022/09/02 08:03:32;;;;;;;1.58;0.60;;;18.80;53.80;20.90;93773.00;;;;10446285;28;45782;-60
2022/09/02 08:08:53;;;;;;;0.40;0.40;;;18.80;53.80;20.90;93777.00;;;;10452657;28;45151;-59
2022/09/02 08:14:18;;;;;;;1.00;0.60;;;18.80;54.10;20.90;93784.00;;;;10442874;28;46083;-59
2022/09/02 08:19:39;;;;;;;0.85;0.50;;;18.80;53.90;20.90;93777.00;;;;10450867;28;45128;-58
2022/09/02 08:25:00;;;;;;;1.17;0.68;;;18.80;53.90;20.90;93765.00;;;;10446822;28;45438;-60
2022/09/02 08:30:22;;;;;;;0.98;0.50;;;18.80;54.00;20.90;93770.00;;;;10447319;28;45576;-60
2022/09/02 08:35:42;;;;;;;0.43;0.40;;;18.80;54.00;20.90;93771.00;;;;10440368;28;45782;-59
2022/09/02 08:41:14;;;;;;;1.83;0.70;;;18.80;54.00;20.90;93769.00;;;;10441204;28;45160;-59
2022/09/02 08:46:35;;;;;;;1.67;0.50;;;18.80;54.00;20.90;93766.00;;;;10461643;28;46123;-59
2022/09/02 08:51:58;;;;;;;0.68;0.60;;;18.80;54.00;20.90;93762.00;;;;10442291;28;45469;-59
2022/09/02 08:57:23;;;;;;;1.08;0.60;;;18.80;54.00;20.90;93756.00;;;;10426701;28;45229;-58
2022/09/02 09:02:56;;;;;;;1.80;0.50;;;18.80;54.10;20.90;93757.00;;;;10457654;28;45194;-60
2022/09/02 09:08:28;;;;;;;1.63;0.50;;;18.80;54.20;21.00;93753.00;;;;10446767;28;45801;-61
2022/09/02 09:14:23;;;;;;;0.70;0.50;;;18.90;54.30;21.00;93759.00;;;;10462365;28;45250;-63
2022/09/02 09:19:50;;;;;;;2.05;0.70;;;19.00;54.20;21.10;93751.00;;;;10428111;28;45412;-61
2022/09/02 09:25:14;;;;;;;0.52;0.50;;;19.00;54.20;21.10;93730.00;;;;10457457;28;45346;-61
2022/09/02 09:30:38;;;;;;;1.40;0.50;;;19.00;53.90;21.10;93748.00;;;;10468892;28;45682;-61
2022/09/02 09:35:59;;;;;;;1.63;0.57;;;19.00;54.20;21.10;93749.00;;;;10451220;28;45186;-60
2022/09/02 09:41:23;;;;;;;0.82;0.57;;;19.10;54.50;21.20;93727.00;;;;10459240;28;45281;-60
2022/09/02 09:46:46;;;;;;;0.80;0.68;;;19.10;54.20;21.10;93737.00;;;;10473291;28;46182;-60
2022/09/02 09:52:06;;;;;;;0.50;0.43;;;19.10;54.40;21.20;93732.00;;;;10452416;28;45208;-62
2022/09/02 09:57:27;;;;;;;0.70;0.52;;;19.10;54.40;21.20;93737.00;;;;10435635;28;45196;-62
2022/09/02 10:02:52;;;;;;;1.08;0.60;;;19.10;54.30;21.20;93724.00;;;;10438245;28;45854;-59
2022/09/02 10:08:21;;;;;;;1.20;0.57;;;19.10;54.40;21.20;93719.00;;;;10439607;28;45555;-60
2022/09/02 10:13:43;;;;;;;1.35;0.75;;;19.10;54.40;21.20;93725.00;;;;10446679;28;45900;-59
2022/09/02 10:19:16;;;;;;;0.88;0.50;;;19.20;54.40;21.20;93731.00;;;;10444104;28;45500;-58
2022/09/02 10:24:54;;;;;;;1.50;0.60;;;19.20;54.30;21.30;93733.00;;;;10431690;28;45175;-59
2022/09/02 10:30:20;;;;;;;1.95;0.55;;;19.20;54.50;21.30;93735.00;;;;10459621;28;45736;-60
2022/09/02 10:35:44;;;;;;;1.58;0.70;;;19.20;54.60;21.30;93730.00;;;;10472120;28;45451;-58
2022/09/02 10:41:26;;;;;;;0.90;0.63;;;19.20;54.50;21.30;93730.00;;;;10459353;28;45499;-61
2022/09/02 10:47:00;;;;;;;1.10;0.70;;;19.20;54.50;21.30;93716.00;;;;10450068;28;45484;-62
2022/09/02 10:52:39;;;;;;;1.60;0.70;;;19.20;54.50;21.40;93706.00;;;;10471051;28;45805;-60
2022/09/02 10:58:04;;;;;;;1.60;0.77;;;19.30;54.70;21.40;93706.00;;;;10457100;28;45766;-63
2022/09/02 11:03:32;;;;;;;1.98;0.90;;;19.30;54.70;21.40;93705.00;;;;10442819;28;45257;-63
2022/09/02 11:08:56;;;;;;;;;;;19.30;54.60;21.40;93681.00;;;;10430329;28;45215;-60
2022/09/02 11:14:24;;;;;;;2.50;0.80;;;19.30;54.60;21.40;93693.00;;;;10448624;28;45831;-58
2022/09/02 11:19:52;;;;;;;1.13;0.80;;;19.30;54.70;21.40;93701.00;;;;10429097;28;45156;-60
2022/09/02 11:25:21;;;;;;;1.33;0.75;;;19.30;54.70;21.40;93701.00;;;;10405499;28;1070545;-59
2022/09/02 11:30:49;;;;;;;0.70;0.60;;;19.30;54.80;21.40;93694.00;;;;10458140;28;45327;-60
2022/09/02 11:36:11;;;;;;;1.40;0.70;;;19.30;54.70;21.50;93693.00;;;;10460172;28;45388;-58
2022/09/02 11:41:50;;;;;;;1.63;1.02;;;19.40;54.70;21.50;93688.00;;;;10469815;28;45510;-60
2022/09/02 11:48:04;;;;;;;0.77;0.68;;;19.40;54.60;21.50;93695.00;;;;10452307;28;45161;-63
2022/09/02 11:53:29;;;;;;;1.00;0.90;;;19.40;54.80;21.50;93693.00;;;;10464151;28;45393;-59
2022/09/02 11:58:52;;;;;;;1.08;0.70;;;19.40;54.80;21.50;93674.00;;;;10471566;28;45177;-60
2022/09/02 12:04:24;;;;;;;1.83;0.70;;;19.50;54.80;21.50;93682.00;;;;10472763;28;45463;-61
2022/09/02 12:09:47;;;;;;;1.63;0.80;;;19.40;54.80;21.50;93665.00;;;;10446181;28;45177;-59
2022/09/02 12:15:17;;;;;;;2.17;0.80;;;19.40;54.80;21.50;93677.00;;;;10445721;28;45255;-58
2022/09/02 12:21:11;;;;;;;1.90;0.88;;;19.50;54.80;21.50;93675.00;;;;10429910;28;45253;-59
2022/09/02 12:27:21;;;;;;;2.00;0.90;;;19.50;54.80;21.60;93672.00;;;;10429805;28;45671;-60
2022/09/02 12:33:12;;;;;;;2.08;0.93;;;19.50;55.50;21.60;93650.00;;;;10465783;28;45691;-61
2022/09/02 12:38:37;;;;;;;0.70;0.60;;;19.50;54.90;21.60;93653.00;;;;10470950;28;45362;-60
2022/09/02 12:44:26;;;;;;;1.25;0.90;;;19.50;54.80;21.60;93643.00;;;;10444867;28;45894;-60
2022/09/02 12:49:54;;;;;;;1.00;0.70;;;19.50;54.80;21.60;93644.00;;;;10435655;28;45323;-61
2022/09/02 12:55:24;;;;;;;1.45;0.70;;;19.50;54.80;21.60;93641.00;;;;10470921;28;45158;-60
2022/09/02 13:01:01;;;;;;;1.65;0.77;;;19.50;55.00;21.60;93639.00;;;;10470110;28;45215;-59
2022/09/02 13:06:27;;;;;;;;;;;19.50;54.90;21.60;93632.00;;;;10449648;28;45177;-60
2022/09/02 13:12:25;;;;;;;4.15;0.80;;;19.50;54.90;21.70;93615.00;;;;10428053;28;45744;-59
2022/09/02 13:17:48;;;;;;;1.63;0.70;;;19.50;55.00;21.70;93614.00;;;;10444977;28;45818;-60
2022/09/02 13:24:05;;;;;;;1.02;0.73;;;19.60;54.90;21.70;93608.00;;;;10426946;28;45873;-59
2022/09/02 13:30:05;;;;;;;0.90;0.65;;;19.60;54.80;21.70;93592.00;;;;10427410;28;45905;-60
2022/09/02 13:35:28;;;;;;;1.95;0.70;;;19.60;54.80;21.70;93578.00;;;;10428199;28;45318;-60
2022/09/02 13:40:50;;;;;;;2.00;0.82;;;19.60;54.80;21.70;93567.00;;;;10437310;28;45218;-60
2022/09/02 13:46:11;;;;;;;1.80;0.82;;;19.60;54.80;21.70;93577.00;;;;10428482;28;45285;-60
2022/09/02 13:51:34;;;;;;;1.05;0.82;;;19.60;55.00;21.70;93582.00;;;;10446015;28;45266;-60
2022/09/02 13:56:57;;;;;;;1.95;0.98;;;19.60;55.00;21.70;93588.00;;;;10447192;28;45804;-60
2022/09/02 14:02:27;;;;;;;0.85;0.63;;;19.60;55.00;21.70;93579.00;;;;10441720;28;45214;-61
2022/09/02 14:07:51;;;;;;;1.55;0.90;;;19.60;55.00;21.70;93590.00;;;;10447406;28;45849;-61
2022/09/02 14:13:15;;;;;;;1.45;0.95;;;19.60;55.00;21.70;93597.00;;;;10442904;28;45133;-61
2022/09/02 14:18:36;;;;;;;0.65;0.65;;;19.70;55.10;21.70;93587.00;;;;10441706;28;45760;-61
2022/09/02 14:23:57;;;;;;;1.35;0.90;;;19.70;55.10;21.70;93576.00;;;;10444052;28;45094;-61
2022/09/02 14:29:20;;;;;;;1.60;0.93;;;19.60;55.00;21.70;93594.00;;;;10448173;28;45163;-61
2022/09/02 14:34:43;;;;;;;1.60;0.90;;;19.60;55.10;21.70;93587.00;;;;10447306;28;45253;-60
2022/09/02 14:40:10;;;;;;;1.45;0.90;;;19.60;55.00;21.70;93613.00;;;;10451533;28;45112;-60
2022/09/02 14:45:34;;;;;;;1.67;0.90;;;19.60;55.10;21.70;93616.00;;;;10437745;28;45265;-60
2022/09/02 14:51:00;;;;;;;1.42;0.80;;;19.50;55.10;21.70;93612.00;;;;10460951;28;45129;-61
2022/09/02 14:56:46;;;;;;;2.95;1.00;;;19.50;55.20;21.60;93622.00;;;;10434665;28;45758;-60
2022/09/02 15:02:08;;;;;;;1.30;0.90;;;19.60;55.30;21.60;93621.00;;;;10447281;28;45809;-60
2022/09/02 15:07:29;;;;;;;1.85;1.00;;;19.50;55.40;21.60;93626.00;;;;10433598;28;45179;-60
2022/09/02 15:12:54;;;;;;;1.33;1.00;;;19.40;55.40;21.60;93633.00;;;;10433588;28;45197;-60
2022/09/02 15:18:16;;;;;;;1.70;0.70;;;19.50;55.60;21.60;93647.00;;;;10458068;28;45182;-60
2022/09/02 15:23:39;;;;;;;0.80;0.77;;;19.40;55.50;21.50;93644.00;;;;10463841;28;45180;-61
2022/09/02 15:29:00;;;;;;;0.90;0.70;;;19.40;55.60;21.50;93644.00;;;;10459545;28;45714;-60
2022/09/02 15:34:23;;;;;;;1.63;0.70;;;19.40;55.70;21.50;93620.00;;;;10450637;28;45214;-60
2022/09/02 15:39:43;;;;;;;1.73;1.05;;;19.40;55.70;21.50;93644.00;;;;10433596;28;45231;-60
2022/09/02 15:45:08;;;;;;;1.00;0.90;;;19.40;55.80;21.50;93647.00;;;;10474445;28;45084;-61
2022/09/02 15:50:32;;;;;;;1.00;0.88;;;19.40;55.80;21.50;93635.00;;;;10434242;28;45195;-61
2022/09/02 15:55:53;;;;;;;1.40;1.00;;;19.40;55.90;21.50;93673.00;;;;10432046;28;45226;-60
2022/09/02 16:01:16;;;;;;;0.70;0.70;;;19.30;55.90;21.50;93702.00;;;;10431169;28;45787;-60
2022/09/02 16:06:41;;;;;;;1.15;0.95;;;19.30;55.90;21.50;93732.00;;;;10431622;28;45776;-61
2022/09/02 16:12:02;;;;;;;1.23;0.95;;;19.30;56.00;21.50;93750.00;;;;10432131;28;45668;-61
2022/09/02 16:17:22;;;;;;;1.35;0.80;;;19.40;56.00;21.50;93745.00;;;;10450590;28;45906;-59
2022/09/02 16:22:44;;;;;;;1.60;0.88;;;19.40;56.00;21.50;93702.00;;;;10429083;28;45273;-59
2022/09/02 16:28:05;;;;;;;1.27;0.70;;;19.30;56.20;21.40;93691.00;;;;10427786;28;45244;-57
2022/09/02 16:33:25;;;;;;;1.05;0.90;;;19.30;56.20;21.40;93669.00;;;;10456745;28;45217;-58
2022/09/02 16:38:47;;;;;;;1.50;0.90;;;19.30;56.30;21.40;93671.00;;;;10470805;28;45432;-57
2022/09/02 16:44:10;;;;;;;0.90;0.75;;;19.30;56.50;21.40;93653.00;;;;10469491;28;45836;-58
2022/09/02 16:49:31;;;;;;;1.35;0.70;;;19.30;56.80;21.40;93629.00;;;;10465822;28;45526;-59
2022/09/02 16:54:52;;;;;;;2.53;1.05;;;19.20;56.80;21.40;93597.00;;;;10470253;28;45675;-58
2022/09/02 17:00:16;;;;;;;1.38;0.57;;;19.20;56.80;21.40;93589.00;;;;10465712;28;45258;-58
2022/09/02 17:05:36;;;;;;;2.30;0.82;;;19.20;56.90;21.40;93591.00;;;;10469345;28;45346;-57
2022/09/02 17:11:18;;;;;;;1.10;0.80;;;19.20;57.00;21.40;93588.00;;;;10438492;28;45344;-59
2022/09/02 17:16:41;;;;;;;1.20;0.95;;;19.20;57.00;21.40;93596.00;;;;10435484;28;45807;-59
2022/09/02 17:22:02;;;;;;;1.25;0.65;;;19.20;56.90;21.30;93602.00;;;;10438979;28;45550;-59
2022/09/02 17:27:24;;;;;;;2.72;0.60;;;19.20;56.90;21.30;93592.00;;;;10427078;28;45199;-59
2022/09/02 17:32:44;;;;;;;1.23;0.60;;;19.20;56.90;21.30;93595.00;;;;10425806;28;45212;-60
2022/09/02 17:38:05;;;;;;;1.15;0.77;;;19.20;56.90;21.30;93592.00;;;;10444317;28;45720;-59
2022/09/02 17:43:27;;;;;;;1.10;0.70;;;19.20;57.60;21.30;93613.00;;;;10444313;28;45800;-58
2022/09/02 17:48:47;;;;;;;0.70;0.60;;;19.20;57.00;21.30;93609.00;;;;10439720;28;45273;-56
2022/09/02 17:54:09;;;;;;;1.00;0.70;;;19.20;57.00;21.30;93588.00;;;;10471184;28;45150;-58
2022/09/02 17:59:52;;;;;;;1.92;0.70;;;19.20;57.00;21.30;93596.00;;;;10476016;28;45416;-57
2022/09/02 18:05:21;;;;;;;1.73;0.70;;;19.20;57.00;21.30;93591.00;;;;10475880;28;45300;-59
2022/09/02 18:10:50;;;;;;;1.40;0.60;;;19.20;57.00;21.30;93590.00;;;;10460325;28;45848;-57
2022/09/02 18:16:32;;;;;;;0.77;0.47;;;19.10;57.00;21.30;93589.00;;;;10442585;28;45542;-58
2022/09/02 18:22:04;;;;;;;0.60;0.60;;;19.10;57.00;21.30;93579.00;;;;10446692;28;45236;-56
2022/09/02 18:27:40;;;;;;;0.60;0.43;;;19.10;57.10;21.30;93593.00;;;;10452783;28;45137;-58
2022/09/02 18:33:28;;;;;;;0.85;0.70;;;19.10;57.20;21.30;93593.00;;;;10473163;28;45217;-59
2022/09/02 18:39:01;;;;;;;0.80;0.52;;;19.20;57.30;21.20;93608.00;;;;10467986;28;45206;-57
2022/09/02 18:44:35;;;;;;;0.30;0.30;;;19.10;57.20;21.20;93601.00;;;;10471734;28;45328;-56
2022/09/02 18:50:02;;;;;;;0.45;0.43;;;19.20;57.30;21.30;93604.00;;;;10446658;28;45891;-57
2022/09/02 18:55:29;;;;;;;1.02;0.50;;;19.10;57.20;21.30;93608.00;;;;10473710;28;45217;-59
2022/09/02 19:00:55;;;;;;;1.70;0.50;;;19.10;57.30;21.20;93588.00;;;;10461106;28;45718;-56
2022/09/02 19:06:22;;;;;;;1.00;0.43;;;19.10;57.30;21.20;93606.00;;;;10448258;28;45217;-57
2022/09/02 19:11:43;;;;;;;0.30;0.30;;;19.10;57.30;21.20;93602.00;;;;10454362;28;45209;-56
2022/09/02 19:17:04;;;;;;;0.77;0.50;;;19.10;57.40;21.20;93602.00;;;;10456010;28;45881;-58
2022/09/02 19:22:27;;;;;;;0.43;0.32;;;19.10;57.40;21.20;93592.00;;;;10451056;28;45221;-57
2022/09/02 19:27:50;;;;;;;0.40;0.40;;;19.10;57.40;21.20;93601.00;;;;10448778;28;45260;-58
2022/09/02 19:33:13;;;;;;;0.80;0.65;;;19.10;57.40;21.20;93595.00;;;;10430093;28;45289;-58
2022/09/02 19:38:37;;;;;;;0.75;0.40;;;19.10;57.50;21.20;93592.00;;;;10430514;28;45858;-57
2022/09/02 19:43:58;;;;;;;0.50;0.40;;;19.10;57.50;21.20;93606.00;;;;10466700;28;45850;-58
2022/09/02 19:49:19;;;;;;;0.55;0.50;;;19.10;57.50;21.20;93613.00;;;;10444059;28;45448;-58
2022/09/02 19:54:42;;;;;;;0.75;0.50;;;19.10;57.50;21.20;93598.00;;;;10471909;28;45371;-59
2022/09/02 20:00:05;;;;;;;0.30;0.30;;;19.10;57.50;21.20;93614.00;;;;10471812;28;45231;-58
2022/09/02 20:05:26;;;;;;;0.85;0.60;;;19.10;57.50;21.20;93621.00;;;;10471340;28;45824;-58
2022/09/02 20:10:55;;;;;;;0.88;0.50;;;19.10;57.50;21.20;93622.00;;;;10470492;28;45250;-58
2022/09/02 20:16:20;;;;;;;0.40;0.40;;;19.10;57.50;21.20;93632.00;;;;10461481;28;45800;-57
2022/09/02 20:21:44;;;;;;;0.47;0.40;;;19.10;57.50;21.20;93632.00;;;;10448413;28;45431;-57
2022/09/02 20:27:20;;;;;;;1.30;0.35;;;19.10;57.50;21.20;93647.00;;;;10449827;28;45328;-55
2022/09/02 20:32:54;;;;;;;0.85;0.50;;;19.10;57.60;21.10;93638.00;;;;10446221;28;45269;-56
2022/09/02 20:38:34;;;;;;;2.05;0.47;;;19.10;57.50;21.20;93640.00;;;;10446763;28;45774;-59
2022/09/02 20:44:16;;;;;;;1.35;0.50;;;19.10;57.60;21.20;93619.00;;;;10446253;28;45834;-57
2022/09/02 20:50:00;;;;;;;0.50;0.30;;;19.10;57.60;21.10;93627.00;;;;10437355;28;45072;-58
2022/09/02 20:55:28;;;;;;;0.50;0.47;;;19.00;57.50;21.10;93609.00;;;;10469348;28;45290;-59
2022/09/02 21:01:05;;;;;;;0.65;0.47;;;19.10;57.60;21.10;93599.00;;;;10469526;28;45711;-59
2022/09/02 21:06:32;;;;;;;0.50;0.50;;;19.10;57.60;21.10;93611.00;;;;10469543;28;45207;-60
2022/09/02 21:12:01;;;;;;;0.47;0.45;;;19.10;57.60;21.10;93606.00;;;;10469134;28;45246;-61
2022/09/02 21:17:36;;;;;;;0.80;0.40;;;19.00;57.60;21.10;93613.00;;;;10468081;28;45294;-58
2022/09/02 21:23:00;;;;;;;0.77;0.50;;;19.00;57.60;21.10;93593.00;;;;10430384;28;45854;-59
2022/09/02 21:28:28;;;;;;;1.05;0.60;;;19.10;57.70;21.10;93601.00;;;;10428835;28;45402;-57
2022/09/02 21:33:52;;;;;;;0.63;0.50;;;19.10;57.70;21.10;93587.00;;;;10434080;28;45898;-58
2022/09/02 21:39:17;;;;;;;0.50;0.50;;;19.00;57.60;21.10;93594.00;;;;10435250;28;45473;-59
2022/09/02 21:44:56;;;;;;;0.50;0.40;;;19.00;58.30;21.10;93602.00;;;;10434328;28;45727;-59
2022/09/02 21:50:23;;;;;;;1.52;0.40;;;19.00;57.60;21.10;93611.00;;;;10436710;28;45170;-58
2022/09/02 21:55:58;;;;;;;1.00;0.55;;;19.00;57.70;21.10;93613.00;;;;10474487;28;45119;-57
2022/09/02 22:01:40;;;;;;;0.73;0.45;;;19.00;58.30;21.10;93595.00;;;;10475652;28;45749;-59
2022/09/02 22:07:17;;;;;;;1.08;0.63;;;19.00;57.60;21.10;93606.00;;;;10475651;28;45204;-58
2022/09/02 22:12:42;;;;;;;0.50;0.40;;;19.00;57.50;21.10;93592.00;;;;10476748;28;45132;-58
2022/09/02 22:18:12;;;;;;;0.80;0.60;;;19.00;57.50;21.10;93604.00;;;;10474465;28;45198;-57
2022/09/02 22:23:35;;;;;;;2.08;0.50;;;19.00;57.50;21.10;93596.00;;;;10456666;28;45292;-59
2022/09/02 22:29:03;;;;;;;0.75;0.60;;;19.00;57.50;21.10;93599.00;;;;10474829;28;45245;-59
2022/09/02 22:34:25;;;;;;;0.50;0.43;;;19.00;57.50;21.10;93599.00;;;;10474335;28;45244;-58
2022/09/02 22:39:52;;;;;;;0.90;0.57;;;19.00;57.50;21.10;93582.00;;;;10473648;28;45222;-57
2022/09/02 22:56:49;;;;;;;0.65;0.50;;;19.00;57.50;21.10;93602.00;;;;10474201;28;45239;-56
2022/09/02 23:02:22;;;;;;;0.88;0.50;;;19.00;57.50;21.10;93601.00;;;;10473903;28;45216;-59
2022/09/02 23:07:43;;;;;;;0.65;0.45;;;19.00;57.50;21.10;93609.00;;;;10473688;28;45313;-57
2022/09/02 23:13:13;;;;;;;0.80;0.40;;;19.00;57.40;21.10;93620.00;;;;10473342;28;45213;-58
2022/09/02 23:18:42;;;;;;;0.57;0.57;;;19.00;57.40;21.10;93617.00;;;;10468287;28;45869;-60
2022/09/02 23:24:14;;;;;;;0.60;0.50;;;19.00;57.40;21.10;93616.00;;;;10431685;28;45202;-59
2022/09/02 23:29:38;;;;;;;0.80;0.60;;;19.00;57.40;21.10;93615.00;;;;10431405;28;45273;-58
2022/09/02 23:35:15;;;;;;;1.10;0.50;;;19.00;57.40;21.00;93637.00;;;;10460707;28;45167;-59
2022/09/02 23:40:40;;;;;;;0.70;0.47;;;19.00;57.40;21.00;93642.00;;;;10472851;28;45143;-59
2022/09/02 23:46:25;;;;;;;0.50;0.50;;;19.00;57.40;21.00;93653.00;;;;10471626;28;45140;-59
2022/09/02 23:51:56;;;;;;;0.77;0.63;;;19.00;57.40;21.10;93637.00;;;;10429457;28;45908;-57
2022/09/02 23:57:35;;;;;;;0.60;0.60;;;19.00;57.50;21.00;93632.00;;;;10470339;28;45178;-59
